createdAt,value
2022-10-28T00:01:57.620Z,11.71
2022-10-28T00:04:25.203Z,11.64
2022-10-28T00:06:52.753Z,11.57
2022-10-28T00:09:21.618Z,11.44
2022-10-28T00:11:49.172Z,11.30
2022-10-28T00:14:16.672Z,11.23
2022-10-28T00:16:44.178Z,11.32
2022-10-28T00:19:12.697Z,11.40
2022-10-28T00:21:41.098Z,11.39
2022-10-28T00:24:09.540Z,11.37
2022-10-28T00:26:39.490Z,11.36
2022-10-28T00:29:07.801Z,11.34
2022-10-28T00:31:36.033Z,11.42
2022-10-28T00:34:04.774Z,11.45
2022-10-28T00:36:33.539Z,11.43
2022-10-28T00:39:02.140Z,11.37
2022-10-28T00:41:30.799Z,11.46
2022-10-28T00:44:00.532Z,11.46
2022-10-28T00:46:30.642Z,11.53
2022-10-28T00:49:01.207Z,11.48
2022-10-28T00:51:30.283Z,11.43
2022-10-28T00:53:58.097Z,11.43
2022-10-28T00:56:27.567Z,11.49
2022-10-28T00:58:57.469Z,11.51
2022-10-28T01:01:26.492Z,11.49
2022-10-28T01:03:55.354Z,11.47
2022-10-28T01:06:22.994Z,11.45
2022-10-28T01:08:50.502Z,11.45
2022-10-28T01:11:27.817Z,11.48
2022-10-28T01:14:03.013Z,11.47
2022-10-28T01:16:43.368Z,11.45
2022-10-28T01:19:27.869Z,11.45
2022-10-28T01:22:13.302Z,11.48
2022-10-28T01:24:53.945Z,11.47
2022-10-28T01:27:32.647Z,11.42
2022-10-28T01:30:08.910Z,11.33
2022-10-28T01:32:43.509Z,11.31
2022-10-28T01:35:15.015Z,11.34
2022-10-28T01:37:49.591Z,11.33
2022-10-28T01:40:20.289Z,11.34
2022-10-28T01:42:52.697Z,11.27
2022-10-28T01:45:23.474Z,11.24
2022-10-28T01:47:54.566Z,11.26
2022-10-28T01:50:25.009Z,11.24
2022-10-28T01:52:55.327Z,11.23
2022-10-28T01:55:26.459Z,11.28
2022-10-28T01:57:55.454Z,11.06
2022-10-28T02:00:23.157Z,10.80
2022-10-28T02:02:52.562Z,10.73
2022-10-28T02:05:43.519Z,10.78
2022-10-28T02:08:22.226Z,10.82
2022-10-28T02:10:57.227Z,10.76
2022-10-28T02:13:29.215Z,10.83
2022-10-28T02:16:03.623Z,10.74
2022-10-28T02:18:36.067Z,10.64
2022-10-28T02:21:05.445Z,10.68
2022-10-28T02:23:40.309Z,10.67
2022-10-28T02:26:11.092Z,10.74
2022-10-28T02:28:40.703Z,10.72
2022-10-28T02:31:11.752Z,10.67
2022-10-28T02:33:42.698Z,10.61
2022-10-28T02:36:12.436Z,10.59
2022-10-28T02:38:41.431Z,10.61
2022-10-28T02:41:12.290Z,10.64
2022-10-28T02:43:41.744Z,10.65
2022-10-28T02:46:09.830Z,10.68
2022-10-28T02:48:40.813Z,10.61
2022-10-28T02:51:12.959Z,10.53
2022-10-28T02:53:46.173Z,10.43
2022-10-28T02:56:15.682Z,10.44
2022-10-28T02:58:43.260Z,10.36
2022-10-28T03:01:10.883Z,10.44
2022-10-28T03:03:38.642Z,10.37
2022-10-28T03:06:06.310Z,10.44
2022-10-28T03:08:35.186Z,10.47
2022-10-28T03:11:02.706Z,10.48
2022-10-28T03:13:30.195Z,10.49
2022-10-28T03:15:57.739Z,10.55
2022-10-28T03:18:25.233Z,10.69
2022-10-28T03:20:55.463Z,10.74
2022-10-28T03:23:25.766Z,10.73
2022-10-28T03:25:54.621Z,10.78
2022-10-28T03:28:22.144Z,10.80
2022-10-28T03:30:49.681Z,10.74
2022-10-28T03:33:17.182Z,10.77
2022-10-28T03:35:45.688Z,10.85
2022-10-28T03:38:13.205Z,10.78
2022-10-28T03:40:40.742Z,10.77
2022-10-28T03:43:09.695Z,10.71
2022-10-28T03:45:37.254Z,10.49
2022-10-28T03:48:04.972Z,10.36
2022-10-28T03:50:32.539Z,10.29
2022-10-28T03:53:00.202Z,10.30
2022-10-28T03:55:27.752Z,10.16
2022-10-28T03:57:55.548Z,10.23
2022-10-28T04:00:24.720Z,10.17
2022-10-28T04:02:52.679Z,10.25
2022-10-28T04:05:20.834Z,10.25
2022-10-28T04:07:48.399Z,10.17
2022-10-28T04:10:16.019Z,9.94
2022-10-28T04:12:43.541Z,9.93
2022-10-28T04:15:11.246Z,9.95
2022-10-28T04:17:40.111Z,9.96
2022-10-28T04:20:08.315Z,10.04
2022-10-28T04:22:35.893Z,10.08
2022-10-28T04:25:03.501Z,10.07
2022-10-28T04:27:31.103Z,9.97
2022-10-28T04:29:58.628Z,10.03
2022-10-28T04:32:26.144Z,10.08
2022-10-28T04:34:55.119Z,10.12
2022-10-28T04:37:22.602Z,10.15
2022-10-28T04:39:50.139Z,10.17
2022-10-28T04:42:17.676Z,10.21
2022-10-28T04:44:45.184Z,10.23
2022-10-28T04:47:12.740Z,10.17
2022-10-28T04:49:40.272Z,10.22
2022-10-28T04:52:12.062Z,10.13
2022-10-28T04:54:42.461Z,10.21
2022-10-28T04:57:10.041Z,10.19
2022-10-28T04:59:37.650Z,10.16
2022-10-28T05:02:05.391Z,10.27
2022-10-28T05:04:32.938Z,10.26
2022-10-28T05:07:00.527Z,10.30
2022-10-28T05:09:29.472Z,10.26
2022-10-28T05:11:57.005Z,10.17
2022-10-28T05:14:24.545Z,10.14
2022-10-28T05:16:52.061Z,10.11
2022-10-28T05:19:19.599Z,9.98
2022-10-28T05:21:47.114Z,10.01
2022-10-28T05:24:14.612Z,10.07
2022-10-28T05:26:43.489Z,10.11
2022-10-28T05:29:10.988Z,10.04
2022-10-28T05:31:38.661Z,10.05
2022-10-28T05:34:06.306Z,10.08
2022-10-28T05:36:33.847Z,10.13
2022-10-28T05:39:01.363Z,10.11
2022-10-28T05:41:29.005Z,10.04
2022-10-28T05:43:57.947Z,10.03
2022-10-28T05:46:25.688Z,10.06
2022-10-28T05:48:53.167Z,10.08
2022-10-28T05:51:20.654Z,10.12
2022-10-28T05:53:50.790Z,10.16
2022-10-28T05:56:18.348Z,10.17
2022-10-28T05:58:45.918Z,10.22
2022-10-28T06:01:14.868Z,10.41
2022-10-28T06:03:42.408Z,10.72
2022-10-28T06:06:10.076Z,10.89
2022-10-28T06:08:37.550Z,10.77
2022-10-28T06:11:03.597Z,10.64
2022-10-28T06:13:31.088Z,10.58
2022-10-28T06:15:58.628Z,10.58
2022-10-28T06:18:27.515Z,10.70
2022-10-28T06:20:56.018Z,10.73
2022-10-28T06:23:24.190Z,10.72
2022-10-28T06:28:28.290Z,10.77
2022-10-28T06:31:00.837Z,10.83
2022-10-28T06:33:29.769Z,10.93
2022-10-28T06:35:57.433Z,11.02
2022-10-28T06:38:25.140Z,11.05
2022-10-28T06:40:52.805Z,11.05
2022-10-28T06:43:20.358Z,11.07
2022-10-28T06:45:55.225Z,11.18
2022-10-28T06:48:24.880Z,11.25
2022-10-28T06:50:55.594Z,11.30
2022-10-28T06:53:23.137Z,11.35
2022-10-28T06:55:53.149Z,11.41
2022-10-28T06:58:20.909Z,11.44
2022-10-28T07:00:48.489Z,11.41
2022-10-28T07:03:16.241Z,11.46
2022-10-28T07:05:44.999Z,11.56
2022-10-28T07:08:14.388Z,11.70
2022-10-28T07:10:42.142Z,11.75
2022-10-28T07:13:09.695Z,11.76
2022-10-28T07:15:37.187Z,11.87
2022-10-28T07:18:04.837Z,12.05
2022-10-28T07:20:32.945Z,12.00
2022-10-28T07:23:00.933Z,12.19
2022-10-28T07:25:30.554Z,12.13
2022-10-28T07:27:58.416Z,12.36
2022-10-28T07:30:25.993Z,12.37
2022-10-28T07:32:53.797Z,12.34
2022-10-28T07:35:21.986Z,12.52
2022-10-28T07:37:49.468Z,12.54
2022-10-28T07:40:16.996Z,12.68
2022-10-28T07:42:45.888Z,12.62
2022-10-28T07:45:13.545Z,12.72
2022-10-28T07:47:41.282Z,12.69
2022-10-28T07:50:09.311Z,12.91
2022-10-28T07:52:37.612Z,13.05
2022-10-28T07:55:06.249Z,12.90
2022-10-28T07:57:34.912Z,12.96
2022-10-28T08:00:05.628Z,13.05
2022-10-28T08:02:33.305Z,13.05
2022-10-28T08:05:02.276Z,13.21
2022-10-28T08:07:30.439Z,13.28
2022-10-28T08:09:59.259Z,13.31
2022-10-28T08:12:28.256Z,13.63
2022-10-28T08:14:56.337Z,13.62
2022-10-28T08:17:25.310Z,13.60
2022-10-28T08:19:52.812Z,13.64
2022-10-28T08:22:20.322Z,13.57
2022-10-28T08:24:47.857Z,13.73
2022-10-28T08:27:15.375Z,13.82
2022-10-28T08:29:42.957Z,13.96
2022-10-28T08:32:10.693Z,14.13
2022-10-28T08:34:42.670Z,14.33
2022-10-28T08:37:11.583Z,14.38
2022-10-28T08:39:39.241Z,14.54
2022-10-28T08:42:16.520Z,14.28
2022-10-28T08:44:57.894Z,14.32
2022-10-28T08:47:31.749Z,14.67
2022-10-28T08:50:02.879Z,14.58
2022-10-28T08:52:34.019Z,14.88
2022-10-28T08:55:03.483Z,15.04
2022-10-28T08:57:35.984Z,15.11
2022-10-28T09:00:05.945Z,15.32
2022-10-28T09:02:38.330Z,15.30
2022-10-28T09:05:13.245Z,15.48
2022-10-28T09:07:40.802Z,15.04
2022-10-28T09:10:08.697Z,15.25
2022-10-28T09:12:42.478Z,15.20
2022-10-28T09:15:18.905Z,15.06
2022-10-28T09:17:52.957Z,15.17
2022-10-28T09:20:25.769Z,15.14
2022-10-28T09:22:56.683Z,15.52
2022-10-28T09:25:26.506Z,15.41
2022-10-28T09:28:02.127Z,15.34
2022-10-28T09:30:34.566Z,15.04
2022-10-28T09:33:10.006Z,15.36
2022-10-28T09:35:41.246Z,15.24
2022-10-28T09:38:14.456Z,15.23
2022-10-28T09:40:43.424Z,15.18
2022-10-28T09:43:18.314Z,15.41
2022-10-28T09:45:47.276Z,15.37
2022-10-28T09:48:18.042Z,15.28
2022-10-28T09:50:50.090Z,15.40
2022-10-28T09:53:20.626Z,15.33
2022-10-28T09:55:48.153Z,15.29
2022-10-28T09:58:15.794Z,15.28
2022-10-28T10:00:43.379Z,15.43
2022-10-28T10:03:10.970Z,15.52
2022-10-28T10:05:40.137Z,15.50
2022-10-28T10:08:12.763Z,15.64
2022-10-28T10:10:45.867Z,15.67
2022-10-28T10:13:14.719Z,15.76
2022-10-28T10:15:44.600Z,15.95
2022-10-28T10:18:15.544Z,16.40
2022-10-28T10:20:48.175Z,16.85
2022-10-28T10:23:24.404Z,17.05
2022-10-28T10:25:56.114Z,17.28
2022-10-28T10:28:24.909Z,17.34
2022-10-28T10:30:53.804Z,17.08
2022-10-28T10:33:22.814Z,17.16
2022-10-28T10:35:59.757Z,17.66
2022-10-28T10:38:29.952Z,18.22
2022-10-28T10:40:57.617Z,18.50
2022-10-28T10:43:30.393Z,18.45
2022-10-28T10:46:02.549Z,19.11
2022-10-28T10:48:32.188Z,19.58
2022-10-28T10:51:05.512Z,19.10
2022-10-28T10:53:35.069Z,18.31
2022-10-28T10:56:03.540Z,17.99
2022-10-28T10:58:33.647Z,17.72
2022-10-28T11:01:02.327Z,17.97
2022-10-28T11:03:31.381Z,18.40
2022-10-28T11:06:21.971Z,18.21
2022-10-28T11:08:49.502Z,18.17
2022-10-28T11:11:20.530Z,18.41
2022-10-28T11:13:48.682Z,18.62
2022-10-28T11:16:20.834Z,18.68
2022-10-28T11:18:49.117Z,18.87
2022-10-28T11:21:42.877Z,18.74
2022-10-28T11:24:22.220Z,18.87
2022-10-28T11:26:54.770Z,19.16
2022-10-28T11:29:22.370Z,19.21
2022-10-28T11:32:04.065Z,19.07
2022-10-28T11:34:39.110Z,19.11
2022-10-28T11:37:12.777Z,18.82
2022-10-28T11:39:47.853Z,19.01
2022-10-28T11:42:22.206Z,19.06
2022-10-28T11:44:53.198Z,19.18
2022-10-28T11:47:27.410Z,19.47
2022-10-28T11:50:06.776Z,19.46
2022-10-28T11:52:45.502Z,19.69
2022-10-28T11:55:20.023Z,19.63
2022-10-28T11:57:52.174Z,19.72
2022-10-28T12:00:35.943Z,19.76
2022-10-28T12:03:11.389Z,19.74
2022-10-28T12:05:44.203Z,20.06
2022-10-28T12:08:19.309Z,19.91
2022-10-28T12:10:54.285Z,20.14
2022-10-28T12:13:27.553Z,20.10
2022-10-28T12:15:58.666Z,19.95
2022-10-28T12:18:28.547Z,19.96
2022-10-28T12:21:00.413Z,19.93
2022-10-28T12:23:28.927Z,19.75
2022-10-28T12:25:59.208Z,19.75
2022-10-28T12:28:29.087Z,19.90
2022-10-28T12:30:57.860Z,19.67
2022-10-28T12:33:26.775Z,19.59
2022-10-28T12:35:56.652Z,19.79
2022-10-28T12:38:27.130Z,19.58
2022-10-28T12:41:00.515Z,19.83
2022-10-28T12:43:33.540Z,19.51
2022-10-28T12:46:01.387Z,19.23
2022-10-28T12:48:32.586Z,19.22
2022-10-28T12:51:04.440Z,19.05
2022-10-28T12:53:35.272Z,19.02
2022-10-28T12:56:03.349Z,19.21
2022-10-28T12:58:34.409Z,19.05
2022-10-28T13:01:03.849Z,18.98
2022-10-28T13:03:32.441Z,19.38
2022-10-28T13:06:08.243Z,19.54
2022-10-28T13:08:52.583Z,19.41
2022-10-28T13:11:43.972Z,19.04
2022-10-28T13:14:21.699Z,18.92
2022-10-28T13:16:57.649Z,18.69
2022-10-28T13:19:36.688Z,18.50
2022-10-28T13:22:21.955Z,18.35
2022-10-28T13:24:55.396Z,18.42
2022-10-28T13:27:23.705Z,18.49
2022-10-28T13:29:58.363Z,18.46
2022-10-28T13:32:33.992Z,17.95
2022-10-28T13:35:12.418Z,18.13
2022-10-28T13:37:40.847Z,18.37
2022-10-28T13:40:21.254Z,18.35
2022-10-28T13:42:49.398Z,18.40
2022-10-28T13:45:40.705Z,18.46
2022-10-28T13:48:26.716Z,18.56
2022-10-28T13:51:18.834Z,18.59
2022-10-28T13:53:56.729Z,18.58
2022-10-28T13:56:37.901Z,18.65
2022-10-28T13:59:07.681Z,18.65
2022-10-28T14:02:01.561Z,18.47
2022-10-28T14:04:31.120Z,18.30
2022-10-28T14:07:17.126Z,18.13
2022-10-28T14:09:44.994Z,18.20
2022-10-28T14:12:33.360Z,18.02
2022-10-28T14:15:04.918Z,17.96
2022-10-28T14:17:37.482Z,17.66
2022-10-28T14:20:06.791Z,17.65
2022-10-28T14:22:37.616Z,17.73
2022-10-28T14:25:25.596Z,17.74
2022-10-28T14:27:53.544Z,17.62
2022-10-28T14:30:22.491Z,17.53
2022-10-28T14:33:08.782Z,17.45
2022-10-28T14:35:41.716Z,17.45
2022-10-28T14:38:22.828Z,17.40
2022-10-28T14:40:51.506Z,17.38
2022-10-28T14:43:30.881Z,17.39
2022-10-28T14:46:07.677Z,17.39
2022-10-28T14:48:44.436Z,17.31
2022-10-28T14:51:14.806Z,17.26
2022-10-28T14:53:44.703Z,17.23
2022-10-28T14:56:17.620Z,17.24
2022-10-28T14:58:45.704Z,17.19
2022-10-28T15:01:24.587Z,17.14
2022-10-28T15:03:53.924Z,17.07
2022-10-28T15:06:29.297Z,17.05
2022-10-28T15:09:03.530Z,17.02
2022-10-28T15:11:31.861Z,16.79
2022-10-28T15:14:13.140Z,16.81
2022-10-28T15:16:46.889Z,16.81
2022-10-28T15:19:15.581Z,16.73
2022-10-28T15:21:43.235Z,16.76
2022-10-28T15:24:14.589Z,16.83
2022-10-28T15:26:42.262Z,16.70
2022-10-28T15:29:11.185Z,16.74
2022-10-28T15:31:53.560Z,16.70
2022-10-28T15:34:21.692Z,16.69
2022-10-28T15:36:49.726Z,16.63
2022-10-28T15:39:18.765Z,16.59
2022-10-28T15:41:52.551Z,16.54
2022-10-28T15:44:24.901Z,16.52
2022-10-28T15:46:52.793Z,16.45
2022-10-28T15:49:37.670Z,16.28
2022-10-28T15:52:32.911Z,16.26
2022-10-28T15:55:03.231Z,16.23
2022-10-28T15:57:31.830Z,16.15
2022-10-28T16:00:19.046Z,15.99
2022-10-28T16:02:50.515Z,16.02
2022-10-28T16:05:36.953Z,16.01
2022-10-28T16:08:06.640Z,15.99
2022-10-28T16:10:37.152Z,15.94
2022-10-28T16:13:09.101Z,15.97
2022-10-28T16:15:46.901Z,15.94
2022-10-28T16:18:14.453Z,15.89
2022-10-28T16:20:42.033Z,15.78
2022-10-28T16:23:13.721Z,15.80
2022-10-28T16:25:42.623Z,15.61
2022-10-28T16:28:14.842Z,15.55
2022-10-28T16:30:42.369Z,15.46
2022-10-28T16:33:10.964Z,15.36
2022-10-28T16:35:38.487Z,15.28
2022-10-28T16:38:10.259Z,15.18
2022-10-28T16:40:51.062Z,15.14
2022-10-28T16:43:21.589Z,15.15
2022-10-28T16:45:49.568Z,15.14
2022-10-28T16:48:18.102Z,15.21
2022-10-28T16:50:48.804Z,15.16
2022-10-28T16:53:16.298Z,15.18
2022-10-28T16:55:43.898Z,15.14
2022-10-28T16:58:11.594Z,15.17
2022-10-28T17:00:41.040Z,15.14
2022-10-28T17:03:10.997Z,15.20
2022-10-28T17:05:38.614Z,15.20
2022-10-28T17:08:09.794Z,15.13
2022-10-28T17:10:39.774Z,15.02
2022-10-28T17:13:08.668Z,14.88
2022-10-28T17:15:36.621Z,14.76
2022-10-28T17:18:05.562Z,14.73
2022-10-28T17:20:33.645Z,14.70
2022-10-28T17:23:01.212Z,14.66
2022-10-28T17:25:28.783Z,14.64
2022-10-28T17:27:56.720Z,14.64
2022-10-28T17:30:24.764Z,14.58
2022-10-28T17:32:53.108Z,14.51
2022-10-28T17:35:22.714Z,14.53
2022-10-28T17:37:51.502Z,14.53
2022-10-28T17:40:19.102Z,14.54
2022-10-28T17:42:46.627Z,14.58
2022-10-28T17:45:17.960Z,14.40
2022-10-28T17:47:48.817Z,14.34
2022-10-28T17:50:16.640Z,14.45
2022-10-28T17:52:45.527Z,14.35
2022-10-28T17:55:13.086Z,14.30
2022-10-28T17:57:40.621Z,14.25
2022-10-28T18:00:08.951Z,14.20
2022-10-28T18:02:36.559Z,14.19
2022-10-28T18:05:04.154Z,14.19
2022-10-28T18:07:31.638Z,14.21
2022-10-28T18:10:00.854Z,14.24
2022-10-28T18:12:28.361Z,14.23
2022-10-28T18:14:55.890Z,14.23
2022-10-28T18:17:23.411Z,14.25
2022-10-28T18:19:50.957Z,14.37
2022-10-28T18:22:18.558Z,14.37
2022-10-28T18:24:46.155Z,14.29
2022-10-28T18:27:15.017Z,14.23
2022-10-28T18:29:42.868Z,14.19
2022-10-28T18:32:12.010Z,14.19
2022-10-28T18:34:39.558Z,14.09
2022-10-28T18:37:09.636Z,14.09
2022-10-28T18:39:37.202Z,14.07
2022-10-28T18:42:04.756Z,13.98
2022-10-28T18:44:34.115Z,13.96
2022-10-28T18:47:01.672Z,13.94
2022-10-28T18:49:29.168Z,13.91
2022-10-28T18:51:56.677Z,13.89
2022-10-28T18:54:24.161Z,13.83
2022-10-28T18:56:55.127Z,13.78
2022-10-28T18:59:25.128Z,13.76
2022-10-28T19:01:54.145Z,13.70
2022-10-28T19:04:21.702Z,13.67
2022-10-28T19:06:49.210Z,13.64
2022-10-28T19:09:16.711Z,13.62
2022-10-28T19:11:44.344Z,13.59
2022-10-28T19:14:11.868Z,13.62
2022-10-28T19:16:39.341Z,13.62
2022-10-28T19:19:09.033Z,13.61
2022-10-28T19:21:36.558Z,13.60
2022-10-28T19:24:05.422Z,13.63
2022-10-28T19:26:34.016Z,13.67
2022-10-28T19:29:01.558Z,13.64
2022-10-28T19:31:30.733Z,13.63
2022-10-28T19:33:58.215Z,13.55
2022-10-28T19:36:28.044Z,13.54
2022-10-28T19:38:56.499Z,13.49
2022-10-28T19:41:25.076Z,13.36
2022-10-28T19:43:57.758Z,13.34
2022-10-28T19:46:26.949Z,13.31
2022-10-28T19:48:55.319Z,13.33
2022-10-28T19:51:24.178Z,13.35
2022-10-28T19:53:53.896Z,13.35
2022-10-28T19:56:21.638Z,13.37
2022-10-28T19:58:53.189Z,13.36
2022-10-28T20:01:21.274Z,13.35
2022-10-28T20:03:50.654Z,13.31
2022-10-28T20:06:19.262Z,13.37
2022-10-28T20:08:48.030Z,13.38
2022-10-28T20:11:21.337Z,13.41
2022-10-28T20:13:53.069Z,13.41
2022-10-28T20:16:20.892Z,13.37
2022-10-28T20:18:48.426Z,13.42
2022-10-28T20:21:17.062Z,13.40
2022-10-28T20:23:45.358Z,13.35
2022-10-28T20:26:13.585Z,13.39
2022-10-28T20:28:42.774Z,13.44
2022-10-28T20:31:10.892Z,13.46
2022-10-28T20:33:39.242Z,13.46
2022-10-28T20:36:07.456Z,13.41
2022-10-28T20:38:34.999Z,13.43
2022-10-28T20:41:02.515Z,13.41
2022-10-28T20:43:30.296Z,13.40
2022-10-28T20:46:00.353Z,13.37
2022-10-28T20:48:28.243Z,13.36
2022-10-28T20:50:56.643Z,13.34
2022-10-28T20:53:25.630Z,13.30
2022-10-28T20:55:54.254Z,13.32
2022-10-28T20:58:22.937Z,13.30
2022-10-28T21:00:50.906Z,13.29
2022-10-28T21:03:20.060Z,13.30
2022-10-28T21:05:47.787Z,13.24
2022-10-28T21:08:15.356Z,13.22
2022-10-28T21:10:42.889Z,13.17
2022-10-28T21:13:10.379Z,13.07
2022-10-28T21:15:38.905Z,13.03
2022-10-28T21:18:07.114Z,12.99
2022-10-28T21:20:37.532Z,12.98
2022-10-28T21:23:05.448Z,13.02
2022-10-28T21:25:33.545Z,12.90
2022-10-28T21:28:01.515Z,12.95
2022-10-28T21:30:29.417Z,12.98
2022-10-28T21:32:57.625Z,13.04
2022-10-28T21:35:26.798Z,13.00
2022-10-28T21:37:57.361Z,12.93
2022-10-28T21:40:25.126Z,12.93
2022-10-28T21:42:52.626Z,12.88
2022-10-28T21:45:20.230Z,12.83
2022-10-28T21:47:47.828Z,12.73
2022-10-28T21:50:16.230Z,12.73
2022-10-28T21:52:43.777Z,12.70
2022-10-28T21:55:20.364Z,12.72
2022-10-28T21:57:54.730Z,12.68
2022-10-28T22:00:22.691Z,12.68
2022-10-28T22:02:50.300Z,12.66
2022-10-28T22:05:17.851Z,12.67
2022-10-28T22:07:45.538Z,12.66
2022-10-28T22:10:14.457Z,12.67
2022-10-28T22:12:41.999Z,12.63
2022-10-28T22:15:09.679Z,12.63
2022-10-28T22:17:37.163Z,12.62
2022-10-28T22:20:07.468Z,12.64
2022-10-28T22:22:34.977Z,12.57
2022-10-28T22:25:04.849Z,12.57
2022-10-28T22:27:36.988Z,12.60
2022-10-28T22:30:04.844Z,12.61
2022-10-28T22:32:32.356Z,12.59
2022-10-28T22:34:59.856Z,12.50
2022-10-28T22:37:27.510Z,12.52
2022-10-28T22:39:54.982Z,12.48
2022-10-28T22:42:24.048Z,12.39
2022-10-28T22:44:53.122Z,12.38
2022-10-28T22:47:20.798Z,12.37
2022-10-28T22:49:48.971Z,12.40
2022-10-28T22:52:16.631Z,12.41
2022-10-28T22:54:44.263Z,12.43
2022-10-28T22:57:11.857Z,12.44
2022-10-28T22:59:39.543Z,12.44
2022-10-28T23:02:08.613Z,12.47
2022-10-28T23:04:36.273Z,12.43
2022-10-28T23:07:03.850Z,12.42
2022-10-28T23:09:31.469Z,12.33
2022-10-28T23:11:59.093Z,12.34
2022-10-28T23:14:26.748Z,12.41
2022-10-28T23:16:54.381Z,12.44
2022-10-28T23:19:23.341Z,12.44
2022-10-28T23:21:50.961Z,12.49
2022-10-28T23:24:18.588Z,12.55
2022-10-28T23:26:46.092Z,12.59
2022-10-28T23:29:14.080Z,12.57
2022-10-28T23:31:41.616Z,12.57
2022-10-28T23:34:09.136Z,12.56
2022-10-28T23:36:38.154Z,12.54
2022-10-28T23:39:05.626Z,12.41
2022-10-28T23:41:33.468Z,12.44
2022-10-28T23:44:01.573Z,12.45
2022-10-28T23:46:33.637Z,12.44
2022-10-28T23:49:04.197Z,12.39
2022-10-28T23:51:31.733Z,12.47
2022-10-28T23:54:00.781Z,12.52
2022-10-28T23:56:28.350Z,12.50
2022-10-28T23:58:55.837Z,12.42
